sensor_id;sensor_type;location;lat;lon;timestamp;P1;durP1;ratioP1;P2;durP2;ratioP2
9986;SDS011;5033;46.310;11.214;2022-08-03T00:00:58;1.02;;;1.02;;
9986;SDS011;5033;46.310;11.214;2022-08-03T00:03:25;1.10;;;1.10;;
9986;SDS011;5033;46.310;11.214;2022-08-03T00:05:52;1.08;;;1.08;;
9986;SDS011;5033;46.310;11.214;2022-08-03T00:08:20;0.90;;;0.90;;
9986;SDS011;5033;46.310;11.214;2022-08-03T00:10:47;1.33;;;0.90;;
9986;SDS011;5033;46.310;11.214;2022-08-03T00:13:15;1.00;;;1.00;;
9986;SDS011;5033;46.310;11.214;2022-08-03T00:15:43;1.00;;;1.00;;
9986;SDS011;5033;46.310;11.214;2022-08-03T00:18:11;1.05;;;1.05;;
9986;SDS011;5033;46.310;11.214;2022-08-03T00:20:38;0.75;;;0.75;;
9986;SDS011;5033;46.310;11.214;2022-08-03T00:23:05;1.08;;;0.93;;
9986;SDS011;5033;46.310;11.214;2022-08-03T00:25:34;0.82;;;0.82;;
9986;SDS011;5033;46.310;11.214;2022-08-03T00:28:01;1.00;;;1.00;;
9986;SDS011;5033;46.310;11.214;2022-08-03T00:30:30;1.23;;;1.20;;
9986;SDS011;5033;46.310;11.214;2022-08-03T00:32:57;1.08;;;1.08;;
9986;SDS011;5033;46.310;11.214;2022-08-03T00:35:25;1.17;;;1.10;;
9986;SDS011;5033;46.310;11.214;2022-08-03T00:37:52;1.13;;;1.10;;
9986;SDS011;5033;46.310;11.214;2022-08-03T00:40:19;1.02;;;1.02;;
9986;SDS011;5033;46.310;11.214;2022-08-03T00:42:49;1.35;;;1.25;;
9986;SDS011;5033;46.310;11.214;2022-08-03T00:45:18;1.20;;;1.05;;
9986;SDS011;5033;46.310;11.214;2022-08-03T00:47:46;1.45;;;1.00;;
9986;SDS011;5033;46.310;11.214;2022-08-03T00:50:14;1.10;;;1.10;;
9986;SDS011;5033;46.310;11.214;2022-08-03T00:52:42;1.52;;;1.42;;
9986;SDS011;5033;46.310;11.214;2022-08-03T00:55:10;0.82;;;0.82;;
9986;SDS011;5033;46.310;11.214;2022-08-03T00:57:38;1.00;;;1.00;;
9986;SDS011;5033;46.310;11.214;2022-08-03T01:00:07;0.93;;;0.93;;
9986;SDS011;5033;46.310;11.214;2022-08-03T01:02:36;1.27;;;1.02;;
9986;SDS011;5033;46.310;11.214;2022-08-03T01:05:04;1.00;;;1.00;;
9986;SDS011;5033;46.310;11.214;2022-08-03T01:07:39;1.20;;;1.20;;
9986;SDS011;5033;46.310;11.214;2022-08-03T01:10:12;1.20;;;1.10;;
9986;SDS011;5033;46.310;11.214;2022-08-03T01:12:47;0.82;;;0.82;;
9986;SDS011;5033;46.310;11.214;2022-08-03T01:15:24;1.13;;;1.13;;
9986;SDS011;5033;46.310;11.214;2022-08-03T01:18:02;1.10;;;1.10;;
9986;SDS011;5033;46.310;11.214;2022-08-03T01:20:35;1.20;;;1.10;;
9986;SDS011;5033;46.310;11.214;2022-08-03T01:23:09;1.10;;;1.10;;
9986;SDS011;5033;46.310;11.214;2022-08-03T01:26:08;1.20;;;1.20;;
9986;SDS011;5033;46.310;11.214;2022-08-03T01:28:55;1.10;;;1.10;;
9986;SDS011;5033;46.310;11.214;2022-08-03T01:31:33;1.10;;;1.00;;
9986;SDS011;5033;46.310;11.214;2022-08-03T01:34:06;1.25;;;1.25;;
9986;SDS011;5033;46.310;11.214;2022-08-03T01:36:37;1.40;;;1.30;;
9986;SDS011;5033;46.310;11.214;2022-08-03T01:39:08;1.10;;;1.00;;
9986;SDS011;5033;46.310;11.214;2022-08-03T01:41:37;0.90;;;0.90;;
9986;SDS011;5033;46.310;11.214;2022-08-03T01:44:10;1.40;;;1.30;;
9986;SDS011;5033;46.310;11.214;2022-08-03T01:46:40;1.10;;;1.10;;
9986;SDS011;5033;46.310;11.214;2022-08-03T01:49:08;1.10;;;1.10;;
9986;SDS011;5033;46.310;11.214;2022-08-03T01:51:40;1.15;;;1.15;;
9986;SDS011;5033;46.310;11.214;2022-08-03T01:54:08;0.95;;;0.95;;
9986;SDS011;5033;46.310;11.214;2022-08-03T01:56:37;1.30;;;1.20;;
9986;SDS011;5033;46.310;11.214;2022-08-03T01:59:05;1.25;;;1.00;;
9986;SDS011;5033;46.310;11.214;2022-08-03T02:01:34;1.15;;;1.05;;
9986;SDS011;5033;46.310;11.214;2022-08-03T02:04:04;1.27;;;1.20;;
9986;SDS011;5033;46.310;11.214;2022-08-03T02:06:32;1.60;;;1.42;;
9986;SDS011;5033;46.310;11.214;2022-08-03T02:09:01;1.20;;;1.20;;
9986;SDS011;5033;46.310;11.214;2022-08-03T02:11:29;1.13;;;1.05;;
9986;SDS011;5033;46.310;11.214;2022-08-03T02:13:58;1.33;;;1.23;;
9986;SDS011;5033;46.310;11.214;2022-08-03T02:16:27;1.23;;;1.15;;
9986;SDS011;5033;46.310;11.214;2022-08-03T02:18:57;1.70;;;1.50;;
9986;SDS011;5033;46.310;11.214;2022-08-03T02:21:28;1.30;;;1.20;;
9986;SDS011;5033;46.310;11.214;2022-08-03T02:23:58;1.10;;;1.10;;
9986;SDS011;5033;46.310;11.214;2022-08-03T02:26:26;1.00;;;1.00;;
9986;SDS011;5033;46.310;11.214;2022-08-03T02:28:55;1.08;;;1.00;;
9986;SDS011;5033;46.310;11.214;2022-08-03T02:31:27;1.10;;;1.00;;
9986;SDS011;5033;46.310;11.214;2022-08-03T02:34:00;1.10;;;1.10;;
9986;SDS011;5033;46.310;11.214;2022-08-03T02:36:32;1.45;;;1.33;;
9986;SDS011;5033;46.310;11.214;2022-08-03T02:39:03;1.23;;;1.15;;
9986;SDS011;5033;46.310;11.214;2022-08-03T02:41:32;1.00;;;1.00;;
9986;SDS011;5033;46.310;11.214;2022-08-03T02:44:03;1.05;;;1.05;;
9986;SDS011;5033;46.310;11.214;2022-08-03T02:46:36;1.30;;;1.20;;
9986;SDS011;5033;46.310;11.214;2022-08-03T02:49:05;1.77;;;1.10;;
9986;SDS011;5033;46.310;11.214;2022-08-03T02:51:35;1.00;;;1.00;;
9986;SDS011;5033;46.310;11.214;2022-08-03T02:54:05;1.00;;;1.00;;
9986;SDS011;5033;46.310;11.214;2022-08-03T02:56:33;1.20;;;1.20;;
9986;SDS011;5033;46.310;11.214;2022-08-03T02:59:01;1.90;;;1.10;;
9986;SDS011;5033;46.310;11.214;2022-08-03T03:01:29;1.33;;;1.23;;
9986;SDS011;5033;46.310;11.214;2022-08-03T03:03:57;1.20;;;1.20;;
9986;SDS011;5033;46.310;11.214;2022-08-03T03:06:26;1.10;;;1.10;;
9986;SDS011;5033;46.310;11.214;2022-08-03T03:08:55;1.30;;;1.20;;
9986;SDS011;5033;46.310;11.214;2022-08-03T03:11:24;1.35;;;1.27;;
9986;SDS011;5033;46.310;11.214;2022-08-03T03:13:52;1.35;;;1.25;;
9986;SDS011;5033;46.310;11.214;2022-08-03T03:16:21;1.33;;;1.23;;
9986;SDS011;5033;46.310;11.214;2022-08-03T03:18:50;1.30;;;1.20;;
9986;SDS011;5033;46.310;11.214;2022-08-03T03:21:20;1.23;;;1.13;;
9986;SDS011;5033;46.310;11.214;2022-08-03T03:23:48;1.00;;;1.00;;
9986;SDS011;5033;46.310;11.214;2022-08-03T03:26:19;1.13;;;1.05;;
9986;SDS011;5033;46.310;11.214;2022-08-03T03:28:46;1.30;;;1.20;;
9986;SDS011;5033;46.310;11.214;2022-08-03T03:31:13;1.10;;;1.10;;
9986;SDS011;5033;46.310;11.214;2022-08-03T03:33:40;1.00;;;1.00;;
9986;SDS011;5033;46.310;11.214;2022-08-03T03:36:08;1.30;;;1.20;;
9986;SDS011;5033;46.310;11.214;2022-08-03T03:38:36;1.02;;;1.02;;
9986;SDS011;5033;46.310;11.214;2022-08-03T03:41:03;1.30;;;1.20;;
9986;SDS011;5033;46.310;11.214;2022-08-03T03:43:32;1.42;;;1.33;;
9986;SDS011;5033;46.310;11.214;2022-08-03T03:45:59;1.30;;;1.30;;
9986;SDS011;5033;46.310;11.214;2022-08-03T03:48:26;1.30;;;1.20;;
9986;SDS011;5033;46.310;11.214;2022-08-03T03:50:53;0.95;;;0.95;;
9986;SDS011;5033;46.310;11.214;2022-08-03T03:53:22;1.20;;;1.20;;
9986;SDS011;5033;46.310;11.214;2022-08-03T03:55:50;1.33;;;1.30;;
9986;SDS011;5033;46.310;11.214;2022-08-03T03:58:18;1.10;;;1.10;;
9986;SDS011;5033;46.310;11.214;2022-08-03T04:00:47;1.20;;;1.20;;
9986;SDS011;5033;46.310;11.214;2022-08-03T04:03:14;1.25;;;1.10;;
9986;SDS011;5033;46.310;11.214;2022-08-03T04:05:42;1.15;;;1.15;;
9986;SDS011;5033;46.310;11.214;2022-08-03T04:08:26;1.25;;;1.15;;
9986;SDS011;5033;46.310;11.214;2022-08-03T04:11:12;1.15;;;1.10;;
9986;SDS011;5033;46.310;11.214;2022-08-03T04:13:43;1.52;;;1.42;;
9986;SDS011;5033;46.310;11.214;2022-08-03T04:16:17;1.08;;;1.05;;
9986;SDS011;5033;46.310;11.214;2022-08-03T04:18:48;1.10;;;1.10;;
9986;SDS011;5033;46.310;11.214;2022-08-03T04:21:20;1.55;;;1.45;;
9986;SDS011;5033;46.310;11.214;2022-08-03T04:23:50;1.20;;;1.20;;
9986;SDS011;5033;46.310;11.214;2022-08-03T04:26:21;1.60;;;1.50;;
9986;SDS011;5033;46.310;11.214;2022-08-03T04:28:50;1.27;;;1.23;;
9986;SDS011;5033;46.310;11.214;2022-08-03T04:31:21;1.55;;;1.45;;
9986;SDS011;5033;46.310;11.214;2022-08-03T04:33:49;1.10;;;1.10;;
9986;SDS011;5033;46.310;11.214;2022-08-03T04:36:18;1.20;;;1.20;;
9986;SDS011;5033;46.310;11.214;2022-08-03T04:38:52;1.10;;;1.10;;
9986;SDS011;5033;46.310;11.214;2022-08-03T04:41:23;1.20;;;1.20;;
9986;SDS011;5033;46.310;11.214;2022-08-03T04:43:52;1.17;;;1.10;;
9986;SDS011;5033;46.310;11.214;2022-08-03T04:46:22;1.05;;;1.05;;
9986;SDS011;5033;46.310;11.214;2022-08-03T04:48:53;1.17;;;1.17;;
9986;SDS011;5033;46.310;11.214;2022-08-03T04:51:22;1.10;;;1.10;;
9986;SDS011;5033;46.310;11.214;2022-08-03T04:53:49;1.00;;;1.00;;
9986;SDS011;5033;46.310;11.214;2022-08-03T04:56:17;1.98;;;1.00;;
9986;SDS011;5033;46.310;11.214;2022-08-03T04:58:44;1.40;;;1.30;;
9986;SDS011;5033;46.310;11.214;2022-08-03T05:01:11;1.50;;;1.40;;
9986;SDS011;5033;46.310;11.214;2022-08-03T05:03:39;1.10;;;1.10;;
9986;SDS011;5033;46.310;11.214;2022-08-03T05:06:06;3.13;;;1.45;;
9986;SDS011;5033;46.310;11.214;2022-08-03T05:08:34;1.58;;;1.20;;
9986;SDS011;5033;46.310;11.214;2022-08-03T05:11:01;1.30;;;1.20;;
9986;SDS011;5033;46.310;11.214;2022-08-03T05:13:28;1.42;;;1.20;;
9986;SDS011;5033;46.310;11.214;2022-08-03T05:15:55;1.10;;;1.10;;
9986;SDS011;5033;46.310;11.214;2022-08-03T05:18:22;1.45;;;1.35;;
9986;SDS011;5033;46.310;11.214;2022-08-03T05:20:51;1.30;;;1.20;;
9986;SDS011;5033;46.310;11.214;2022-08-03T05:23:18;1.40;;;1.30;;
9986;SDS011;5033;46.310;11.214;2022-08-03T05:25:45;1.45;;;1.35;;
9986;SDS011;5033;46.310;11.214;2022-08-03T05:28:12;1.40;;;1.30;;
9986;SDS011;5033;46.310;11.214;2022-08-03T05:30:39;2.97;;;1.50;;
9986;SDS011;5033;46.310;11.214;2022-08-03T05:33:06;1.45;;;1.27;;
9986;SDS011;5033;46.310;11.214;2022-08-03T05:35:34;1.63;;;1.52;;
9986;SDS011;5033;46.310;11.214;2022-08-03T05:38:04;1.60;;;1.40;;
9986;SDS011;5033;46.310;11.214;2022-08-03T05:40:32;1.60;;;1.50;;
9986;SDS011;5033;46.310;11.214;2022-08-03T05:42:59;1.50;;;1.40;;
9986;SDS011;5033;46.310;11.214;2022-08-03T05:45:27;3.05;;;1.73;;
9986;SDS011;5033;46.310;11.214;2022-08-03T05:47:54;1.83;;;1.40;;
9986;SDS011;5033;46.310;11.214;2022-08-03T05:50:21;2.15;;;1.63;;
9986;SDS011;5033;46.310;11.214;2022-08-03T05:52:48;1.60;;;1.50;;
9986;SDS011;5033;46.310;11.214;2022-08-03T05:55:17;1.63;;;1.52;;
9986;SDS011;5033;46.310;11.214;2022-08-03T05:57:44;2.15;;;1.73;;
9986;SDS011;5033;46.310;11.214;2022-08-03T06:00:12;3.67;;;1.60;;
9986;SDS011;5033;46.310;11.214;2022-08-03T06:02:40;2.22;;;1.80;;
9986;SDS011;5033;46.310;11.214;2022-08-03T06:05:08;1.60;;;1.50;;
9986;SDS011;5033;46.310;11.214;2022-08-03T06:07:36;1.90;;;1.40;;
9986;SDS011;5033;46.310;11.214;2022-08-03T06:10:03;2.45;;;1.40;;
9986;SDS011;5033;46.310;11.214;2022-08-03T06:12:32;1.50;;;1.40;;
9986;SDS011;5033;46.310;11.214;2022-08-03T06:15:00;1.50;;;1.40;;
9986;SDS011;5033;46.310;11.214;2022-08-03T06:17:28;2.78;;;1.63;;
9986;SDS011;5033;46.310;11.214;2022-08-03T06:19:55;1.70;;;1.60;;
9986;SDS011;5033;46.310;11.214;2022-08-03T06:22:23;1.90;;;1.80;;
9986;SDS011;5033;46.310;11.214;2022-08-03T06:24:50;2.58;;;1.88;;
9986;SDS011;5033;46.310;11.214;2022-08-03T06:27:17;2.53;;;1.90;;
9986;SDS011;5033;46.310;11.214;2022-08-03T06:29:45;3.05;;;1.77;;
9986;SDS011;5033;46.310;11.214;2022-08-03T06:32:13;1.88;;;1.73;;
9986;SDS011;5033;46.310;11.214;2022-08-03T06:34:40;1.90;;;1.80;;
9986;SDS011;5033;46.310;11.214;2022-08-03T06:37:07;3.17;;;1.77;;
9986;SDS011;5033;46.310;11.214;2022-08-03T06:39:36;1.80;;;1.70;;
9986;SDS011;5033;46.310;11.214;2022-08-03T06:42:03;3.20;;;1.92;;
9986;SDS011;5033;46.310;11.214;2022-08-03T06:44:30;1.75;;;1.65;;
9986;SDS011;5033;46.310;11.214;2022-08-03T06:46:58;1.90;;;1.80;;
9986;SDS011;5033;46.310;11.214;2022-08-03T06:49:25;1.88;;;1.77;;
9986;SDS011;5033;46.310;11.214;2022-08-03T06:51:53;2.00;;;1.63;;
9986;SDS011;5033;46.310;11.214;2022-08-03T06:54:20;4.40;;;2.17;;
9986;SDS011;5033;46.310;11.214;2022-08-03T06:56:48;1.90;;;1.73;;
9986;SDS011;5033;46.310;11.214;2022-08-03T06:59:16;2.20;;;2.10;;
9986;SDS011;5033;46.310;11.214;2022-08-03T07:01:43;3.05;;;1.80;;
9986;SDS011;5033;46.310;11.214;2022-08-03T07:04:11;1.85;;;1.75;;
9986;SDS011;5033;46.310;11.214;2022-08-03T07:06:38;3.42;;;1.90;;
9986;SDS011;5033;46.310;11.214;2022-08-03T07:09:05;1.75;;;1.65;;
9986;SDS011;5033;46.310;11.214;2022-08-03T07:11:32;1.98;;;1.73;;
9986;SDS011;5033;46.310;11.214;2022-08-03T07:13:59;1.95;;;1.85;;
9986;SDS011;5033;46.310;11.214;2022-08-03T07:16:27;2.08;;;1.98;;
9986;SDS011;5033;46.310;11.214;2022-08-03T07:18:54;1.88;;;1.73;;
9986;SDS011;5033;46.310;11.214;2022-08-03T07:21:22;2.70;;;2.08;;
9986;SDS011;5033;46.310;11.214;2022-08-03T07:23:49;1.80;;;1.70;;
9986;SDS011;5033;46.310;11.214;2022-08-03T07:26:16;4.53;;;1.83;;
9986;SDS011;5033;46.310;11.214;2022-08-03T07:28:43;1.83;;;1.73;;
9986;SDS011;5033;46.310;11.214;2022-08-03T07:31:10;2.20;;;2.00;;
9986;SDS011;5033;46.310;11.214;2022-08-03T07:33:37;1.95;;;1.85;;
9986;SDS011;5033;46.310;11.214;2022-08-03T07:36:04;2.15;;;1.95;;
9986;SDS011;5033;46.310;11.214;2022-08-03T07:38:34;3.40;;;1.85;;
9986;SDS011;5033;46.310;11.214;2022-08-03T07:41:01;2.10;;;1.88;;
9986;SDS011;5033;46.310;11.214;2022-08-03T07:43:29;2.15;;;2.05;;
9986;SDS011;5033;46.310;11.214;2022-08-03T07:45:56;2.10;;;2.00;;
9986;SDS011;5033;46.310;11.214;2022-08-03T07:48:23;2.05;;;1.85;;
9986;SDS011;5033;46.310;11.214;2022-08-03T07:50:50;2.17;;;1.98;;
9986;SDS011;5033;46.310;11.214;2022-08-03T07:53:18;2.15;;;1.77;;
9986;SDS011;5033;46.310;11.214;2022-08-03T07:55:46;2.13;;;2.03;;
9986;SDS011;5033;46.310;11.214;2022-08-03T07:58:13;2.58;;;2.08;;
9986;SDS011;5033;46.310;11.214;2022-08-03T08:00:42;1.90;;;1.80;;
9986;SDS011;5033;46.310;11.214;2022-08-03T08:03:10;2.10;;;2.00;;
9986;SDS011;5033;46.310;11.214;2022-08-03T08:05:37;1.80;;;1.70;;
9986;SDS011;5033;46.310;11.214;2022-08-03T08:08:04;2.17;;;2.00;;
9986;SDS011;5033;46.310;11.214;2022-08-03T08:10:33;1.80;;;1.70;;
9986;SDS011;5033;46.310;11.214;2022-08-03T08:13:02;1.77;;;1.67;;
9986;SDS011;5033;46.310;11.214;2022-08-03T08:15:29;2.13;;;1.85;;
9986;SDS011;5033;46.310;11.214;2022-08-03T08:17:57;1.77;;;1.60;;
9986;SDS011;5033;46.310;11.214;2022-08-03T08:20:26;2.08;;;1.90;;
9986;SDS011;5033;46.310;11.214;2022-08-03T08:22:54;2.28;;;2.10;;
9986;SDS011;5033;46.310;11.214;2022-08-03T08:25:23;2.30;;;2.10;;
9986;SDS011;5033;46.310;11.214;2022-08-03T08:27:50;3.10;;;1.90;;
9986;SDS011;5033;46.310;11.214;2022-08-03T08:30:20;2.20;;;2.00;;
9986;SDS011;5033;46.310;11.214;2022-08-03T08:32:48;2.00;;;1.90;;
9986;SDS011;5033;46.310;11.214;2022-08-03T08:35:16;2.00;;;1.80;;
9986;SDS011;5033;46.310;11.214;2022-08-03T08:37:44;4.40;;;2.20;;
9986;SDS011;5033;46.310;11.214;2022-08-03T08:40:11;2.78;;;2.42;;
9986;SDS011;5033;46.310;11.214;2022-08-03T08:42:39;2.95;;;2.13;;
9986;SDS011;5033;46.310;11.214;2022-08-03T08:45:07;2.08;;;1.98;;
9986;SDS011;5033;46.310;11.214;2022-08-03T08:47:38;2.25;;;2.05;;
9986;SDS011;5033;46.310;11.214;2022-08-03T08:50:06;1.80;;;1.70;;
9986;SDS011;5033;46.310;11.214;2022-08-03T08:52:35;2.25;;;2.05;;
9986;SDS011;5033;46.310;11.214;2022-08-03T08:55:07;2.22;;;2.10;;
9986;SDS011;5033;46.310;11.214;2022-08-03T08:57:36;4.15;;;2.00;;
9986;SDS011;5033;46.310;11.214;2022-08-03T09:00:06;2.10;;;2.00;;
9986;SDS011;5033;46.310;11.214;2022-08-03T09:02:39;1.90;;;1.80;;
9986;SDS011;5033;46.310;11.214;2022-08-03T09:05:08;2.08;;;1.98;;
9986;SDS011;5033;46.310;11.214;2022-08-03T09:07:37;1.85;;;1.75;;
9986;SDS011;5033;46.310;11.214;2022-08-03T09:10:05;1.92;;;1.83;;
9986;SDS011;5033;46.310;11.214;2022-08-03T09:12:36;2.10;;;2.00;;
9986;SDS011;5033;46.310;11.214;2022-08-03T09:15:17;1.92;;;1.83;;
9986;SDS011;5033;46.310;11.214;2022-08-03T09:17:46;1.67;;;1.58;;
9986;SDS011;5033;46.310;11.214;2022-08-03T09:20:14;2.00;;;1.90;;
9986;SDS011;5033;46.310;11.214;2022-08-03T09:22:51;2.60;;;1.77;;
9986;SDS011;5033;46.310;11.214;2022-08-03T09:25:25;1.77;;;1.67;;
9986;SDS011;5033;46.310;11.214;2022-08-03T09:27:54;1.85;;;1.75;;
9986;SDS011;5033;46.310;11.214;2022-08-03T09:30:28;2.05;;;1.90;;
9986;SDS011;5033;46.310;11.214;2022-08-03T09:33:00;1.90;;;1.80;;
9986;SDS011;5033;46.310;11.214;2022-08-03T09:35:28;1.80;;;1.70;;
9986;SDS011;5033;46.310;11.214;2022-08-03T09:38:08;2.50;;;1.50;;
9986;SDS011;5033;46.310;11.214;2022-08-03T09:40:39;2.05;;;1.80;;
9986;SDS011;5033;46.310;11.214;2022-08-03T09:43:06;1.92;;;1.70;;
9986;SDS011;5033;46.310;11.214;2022-08-03T09:45:33;1.80;;;1.70;;
9986;SDS011;5033;46.310;11.214;2022-08-03T09:48:21;1.90;;;1.75;;
9986;SDS011;5033;46.310;11.214;2022-08-03T09:50:49;1.70;;;1.60;;
9986;SDS011;5033;46.310;11.214;2022-08-03T09:53:18;1.83;;;1.67;;
9986;SDS011;5033;46.310;11.214;2022-08-03T09:55:52;2.17;;;1.98;;
9986;SDS011;5033;46.310;11.214;2022-08-03T09:58:20;1.98;;;1.63;;
9986;SDS011;5033;46.310;11.214;2022-08-03T10:00:52;1.80;;;1.70;;
9986;SDS011;5033;46.310;11.214;2022-08-03T10:03:21;1.63;;;1.52;;
9986;SDS011;5033;46.310;11.214;2022-08-03T10:05:49;1.88;;;1.77;;
9986;SDS011;5033;46.310;11.214;2022-08-03T10:08:17;1.60;;;1.50;;
9986;SDS011;5033;46.310;11.214;2022-08-03T10:10:45;1.75;;;1.65;;
9986;SDS011;5033;46.310;11.214;2022-08-03T10:13:15;1.80;;;1.70;;
9986;SDS011;5033;46.310;11.214;2022-08-03T10:15:43;1.85;;;1.75;;
9986;SDS011;5033;46.310;11.214;2022-08-03T10:18:11;1.80;;;1.70;;
9986;SDS011;5033;46.310;11.214;2022-08-03T10:20:42;1.70;;;1.60;;
9986;SDS011;5033;46.310;11.214;2022-08-03T10:23:15;1.92;;;1.83;;
9986;SDS011;5033;46.310;11.214;2022-08-03T10:25:45;2.03;;;1.92;;
9986;SDS011;5033;46.310;11.214;2022-08-03T10:28:14;3.00;;;1.80;;
9986;SDS011;5033;46.310;11.214;2022-08-03T10:30:46;3.25;;;1.70;;
9986;SDS011;5033;46.310;11.214;2022-08-03T10:33:16;1.60;;;1.50;;
9986;SDS011;5033;46.310;11.214;2022-08-03T10:35:49;1.77;;;1.67;;
9986;SDS011;5033;46.310;11.214;2022-08-03T10:38:22;1.55;;;1.40;;
9986;SDS011;5033;46.310;11.214;2022-08-03T10:40:55;1.45;;;1.35;;
9986;SDS011;5033;46.310;11.214;2022-08-03T10:43:24;1.90;;;1.80;;
9986;SDS011;5033;46.310;11.214;2022-08-03T10:45:53;1.63;;;1.52;;
9986;SDS011;5033;46.310;11.214;2022-08-03T10:48:22;2.08;;;1.70;;
9986;SDS011;5033;46.310;11.214;2022-08-03T10:50:51;1.63;;;1.50;;
9986;SDS011;5033;46.310;11.214;2022-08-03T10:53:32;2.25;;;1.60;;
9986;SDS011;5033;46.310;11.214;2022-08-03T10:56:00;1.67;;;1.58;;
9986;SDS011;5033;46.310;11.214;2022-08-03T10:58:46;1.65;;;1.40;;
9986;SDS011;5033;46.310;11.214;2022-08-03T11:01:18;1.88;;;1.70;;
9986;SDS011;5033;46.310;11.214;2022-08-03T11:04:15;1.50;;;1.38;;
9986;SDS011;5033;46.310;11.214;2022-08-03T11:06:46;1.70;;;1.40;;
9986;SDS011;5033;46.310;11.214;2022-08-03T11:09:14;1.70;;;1.60;;
9986;SDS011;5033;46.310;11.214;2022-08-03T11:11:45;2.33;;;1.52;;
9986;SDS011;5033;46.310;11.214;2022-08-03T11:14:14;1.48;;;1.38;;
9986;SDS011;5033;46.310;11.214;2022-08-03T11:16:44;1.63;;;1.50;;
9986;SDS011;5033;46.310;11.214;2022-08-03T11:19:12;1.40;;;1.30;;
9986;SDS011;5033;46.310;11.214;2022-08-03T11:21:53;1.42;;;1.33;;
9986;SDS011;5033;46.310;11.214;2022-08-03T11:27:23;1.50;;;1.40;;
9986;SDS011;5033;46.310;11.214;2022-08-03T11:29:55;1.42;;;1.33;;
9986;SDS011;5033;46.310;11.214;2022-08-03T11:35:26;1.60;;;1.50;;
9986;SDS011;5033;46.310;11.214;2022-08-03T11:40:49;1.80;;;1.50;;
9986;SDS011;5033;46.310;11.214;2022-08-03T11:46:11;1.60;;;1.50;;
9986;SDS011;5033;46.310;11.214;2022-08-03T11:48:43;1.60;;;1.50;;
9986;SDS011;5033;46.310;11.214;2022-08-03T11:51:19;1.65;;;1.55;;
9986;SDS011;5033;46.310;11.214;2022-08-03T11:53:51;1.40;;;1.30;;
9986;SDS011;5033;46.310;11.214;2022-08-03T11:56:19;1.35;;;1.25;;
9986;SDS011;5033;46.310;11.214;2022-08-03T11:58:47;1.73;;;1.33;;
9986;SDS011;5033;46.310;11.214;2022-08-03T12:01:17;1.50;;;1.40;;
9986;SDS011;5033;46.310;11.214;2022-08-03T12:03:46;1.95;;;1.55;;
9986;SDS011;5033;46.310;11.214;2022-08-03T12:06:14;1.83;;;1.40;;
9986;SDS011;5033;46.310;11.214;2022-08-03T12:08:42;1.60;;;1.50;;
9986;SDS011;5033;46.310;11.214;2022-08-03T12:11:12;1.50;;;1.40;;
9986;SDS011;5033;46.310;11.214;2022-08-03T12:13:41;2.45;;;1.23;;
9986;SDS011;5033;46.310;11.214;2022-08-03T12:16:15;1.60;;;1.50;;
9986;SDS011;5033;46.310;11.214;2022-08-03T12:18:43;1.95;;;1.40;;
9986;SDS011;5033;46.310;11.214;2022-08-03T12:21:11;1.40;;;1.30;;
9986;SDS011;5033;46.310;11.214;2022-08-03T12:23:38;1.70;;;1.60;;
9986;SDS011;5033;46.310;11.214;2022-08-03T12:26:06;1.30;;;1.20;;
9986;SDS011;5033;46.310;11.214;2022-08-03T12:28:35;1.38;;;1.20;;
9986;SDS011;5033;46.310;11.214;2022-08-03T12:31:03;1.85;;;1.40;;
9986;SDS011;5033;46.310;11.214;2022-08-03T12:33:32;1.38;;;1.27;;
9986;SDS011;5033;46.310;11.214;2022-08-03T12:36:19;1.23;;;1.13;;
9986;SDS011;5033;46.310;11.214;2022-08-03T12:38:52;2.53;;;1.77;;
9986;SDS011;5033;46.310;11.214;2022-08-03T12:41:26;1.98;;;1.60;;
9986;SDS011;5033;46.310;11.214;2022-08-03T12:43:55;1.50;;;1.38;;
9986;SDS011;5033;46.310;11.214;2022-08-03T12:46:28;1.20;;;1.20;;
9986;SDS011;5033;46.310;11.214;2022-08-03T12:48:59;1.63;;;1.40;;
9986;SDS011;5033;46.310;11.214;2022-08-03T12:51:31;1.40;;;1.30;;
9986;SDS011;5033;46.310;11.214;2022-08-03T12:54:02;1.55;;;1.45;;
9986;SDS011;5033;46.310;11.214;2022-08-03T12:56:30;3.92;;;1.40;;
9986;SDS011;5033;46.310;11.214;2022-08-03T12:58:58;1.27;;;1.17;;
9986;SDS011;5033;46.310;11.214;2022-08-03T13:01:26;2.03;;;1.33;;
9986;SDS011;5033;46.310;11.214;2022-08-03T13:04:02;1.70;;;1.60;;
9986;SDS011;5033;46.310;11.214;2022-08-03T13:06:30;1.40;;;1.30;;
9986;SDS011;5033;46.310;11.214;2022-08-03T13:09:04;1.40;;;1.30;;
9986;SDS011;5033;46.310;11.214;2022-08-03T13:11:32;1.80;;;1.40;;
9986;SDS011;5033;46.310;11.214;2022-08-03T13:14:01;2.25;;;1.67;;
9986;SDS011;5033;46.310;11.214;2022-08-03T13:16:28;1.35;;;1.20;;
9986;SDS011;5033;46.310;11.214;2022-08-03T13:18:56;1.40;;;1.30;;
9986;SDS011;5033;46.310;11.214;2022-08-03T13:21:23;1.52;;;1.42;;
9986;SDS011;5033;46.310;11.214;2022-08-03T13:23:50;1.20;;;1.10;;
9986;SDS011;5033;46.310;11.214;2022-08-03T13:26:17;1.30;;;1.20;;
9986;SDS011;5033;46.310;11.214;2022-08-03T13:28:44;2.75;;;1.30;;
9986;SDS011;5033;46.310;11.214;2022-08-03T13:31:12;1.77;;;1.30;;
9986;SDS011;5033;46.310;11.214;2022-08-03T13:33:40;1.60;;;1.50;;
9986;SDS011;5033;46.310;11.214;2022-08-03T13:36:07;1.30;;;1.20;;
9986;SDS011;5033;46.310;11.214;2022-08-03T13:38:34;1.45;;;1.35;;
9986;SDS011;5033;46.310;11.214;2022-08-03T13:41:01;2.88;;;1.33;;
9986;SDS011;5033;46.310;11.214;2022-08-03T13:43:29;1.30;;;1.20;;
9986;SDS011;5033;46.310;11.214;2022-08-03T13:45:56;1.40;;;1.30;;
9986;SDS011;5033;46.310;11.214;2022-08-03T13:48:24;3.42;;;1.25;;
9986;SDS011;5033;46.310;11.214;2022-08-03T13:50:52;1.67;;;1.20;;
9986;SDS011;5033;46.310;11.214;2022-08-03T13:53:19;2.95;;;1.27;;
9986;SDS011;5033;46.310;11.214;2022-08-03T13:55:46;1.25;;;1.15;;
9986;SDS011;5033;46.310;11.214;2022-08-03T13:58:13;1.35;;;1.20;;
9986;SDS011;5033;46.310;11.214;2022-08-03T14:00:40;2.20;;;1.00;;
9986;SDS011;5033;46.310;11.214;2022-08-03T14:03:07;1.38;;;1.05;;
9986;SDS011;5033;46.310;11.214;2022-08-03T14:05:36;1.90;;;1.20;;
9986;SDS011;5033;46.310;11.214;2022-08-03T14:08:04;1.40;;;1.30;;
9986;SDS011;5033;46.310;11.214;2022-08-03T14:10:32;1.50;;;1.40;;
9986;SDS011;5033;46.310;11.214;2022-08-03T14:13:01;2.28;;;1.30;;
9986;SDS011;5033;46.310;11.214;2022-08-03T14:15:28;1.27;;;1.20;;
9986;SDS011;5033;46.310;11.214;2022-08-03T14:17:56;1.00;;;1.00;;
9986;SDS011;5033;46.310;11.214;2022-08-03T14:20:23;1.30;;;1.20;;
9986;SDS011;5033;46.310;11.214;2022-08-03T14:22:52;2.13;;;1.40;;
9986;SDS011;5033;46.310;11.214;2022-08-03T14:25:21;1.92;;;1.30;;
9986;SDS011;5033;46.310;11.214;2022-08-03T14:27:49;1.30;;;1.20;;
9986;SDS011;5033;46.310;11.214;2022-08-03T14:30:16;2.08;;;1.13;;
9986;SDS011;5033;46.310;11.214;2022-08-03T14:32:43;1.40;;;1.20;;
9986;SDS011;5033;46.310;11.214;2022-08-03T14:35:10;4.90;;;1.30;;
9986;SDS011;5033;46.310;11.214;2022-08-03T14:37:37;1.10;;;1.00;;
9986;SDS011;5033;46.310;11.214;2022-08-03T14:40:07;1.10;;;1.05;;
9986;SDS011;5033;46.310;11.214;2022-08-03T14:42:34;1.40;;;1.20;;
9986;SDS011;5033;46.310;11.214;2022-08-03T14:45:01;1.52;;;1.27;;
9986;SDS011;5033;46.310;11.214;2022-08-03T14:47:29;1.27;;;1.20;;
9986;SDS011;5033;46.310;11.214;2022-08-03T14:49:57;1.73;;;1.38;;
9986;SDS011;5033;46.310;11.214;2022-08-03T14:52:24;1.90;;;1.30;;
9986;SDS011;5033;46.310;11.214;2022-08-03T14:54:51;1.20;;;1.20;;
9986;SDS011;5033;46.310;11.214;2022-08-03T14:57:20;1.35;;;1.20;;
9986;SDS011;5033;46.310;11.214;2022-08-03T14:59:47;1.13;;;1.02;;
9986;SDS011;5033;46.310;11.214;2022-08-03T15:02:14;1.67;;;1.55;;
9986;SDS011;5033;46.310;11.214;2022-08-03T15:04:41;1.40;;;1.30;;
9986;SDS011;5033;46.310;11.214;2022-08-03T15:07:08;1.67;;;1.20;;
9986;SDS011;5033;46.310;11.214;2022-08-03T15:09:35;1.58;;;1.48;;
9986;SDS011;5033;46.310;11.214;2022-08-03T15:12:03;2.33;;;1.27;;
9986;SDS011;5033;46.310;11.214;2022-08-03T15:14:32;1.20;;;1.10;;
9986;SDS011;5033;46.310;11.214;2022-08-03T15:16:59;1.63;;;1.40;;
9986;SDS011;5033;46.310;11.214;2022-08-03T15:19:26;1.50;;;1.20;;
9986;SDS011;5033;46.310;11.214;2022-08-03T15:21:53;1.35;;;1.13;;
9986;SDS011;5033;46.310;11.214;2022-08-03T15:24:20;1.75;;;1.65;;